Time;durP1;ratioP1;P1;durP2;ratioP2;P2;SDS_P1;SDS_P2;PMS_P1;PMS_P2;Temp;Humidity;BMP_temperature;BMP_pressure;BME280_temperature;BME280_humidity;BME280_pressure;Samples;Min_cycle;Max_cycle;Signal;HPM_P1;HPM_P2
2022/11/04 00:01:41;;;;;;;9.85;5.00;;;;;;;15.93;nan;98888.84;4900014;29;20115;-96
2022/11/04 00:04:08;;;;;;;16.25;5.32;;;;;;;16.25;nan;98905.50;4907413;29;20032;-96
2022/11/04 00:06:35;;;;;;;14.77;5.30;;;;;;;16.15;nan;98904.91;4899816;29;20427;-95
2022/11/04 00:09:00;;;;;;;14.85;5.22;;;;;;;15.79;nan;98906.31;4916478;29;20035;-95
2022/11/04 00:14:12;;;;;;;16.40;5.10;;;;;;;16.26;nan;98920.41;4917877;29;20034;-96
2022/11/04 00:19:21;;;;;;;7.78;4.15;;;;;;;16.06;nan;98926.16;4918329;29;20035;-95
2022/11/04 00:30:04;;;;;;;12.38;5.00;;;;;;;16.02;nan;98955.81;4915305;29;20107;-95
2022/11/04 00:35:15;;;;;;;10.32;4.80;;;;;;;16.16;nan;98965.66;4920985;29;20064;-96
2022/11/04 00:37:43;;;;;;;6.70;3.67;;;;;;;15.95;nan;98981.34;4919768;29;20040;-96
2022/11/04 00:40:11;;;;;;;10.13;4.30;;;;;;;16.11;nan;98975.13;4903635;29;20016;-95
2022/11/04 00:42:36;;;;;;;10.93;4.63;;;;;;;15.89;nan;98976.72;4918944;29;20020;-95
2022/11/04 00:45:02;;;;;;;14.02;4.00;;;;;;;15.75;nan;98973.00;4917170;29;20035;-96
2022/11/04 00:47:28;;;;;;;10.38;4.28;;;;;;;15.72;nan;98976.78;4920289;29;20040;-96
2022/11/04 00:49:54;;;;;;;10.65;3.95;;;;;;;15.76;nan;98982.59;4904972;29;20058;-94
2022/11/04 00:52:19;;;;;;;8.20;3.70;;;;;;;15.55;nan;99004.31;4920135;29;20035;-96
2022/11/04 00:54:45;;;;;;;10.05;4.20;;;;;;;15.43;nan;99007.31;4904326;29;20070;-95
2022/11/04 00:57:14;;;;;;;6.20;3.20;;;;;;;15.58;nan;99010.09;4919613;29;20042;-96
2022/11/04 00:59:40;;;;;;;10.60;3.80;;;;;;;15.56;nan;99029.75;4902015;29;20024;-96
2022/11/04 01:02:08;;;;;;;7.65;3.45;;;;;;;15.44;nan;99014.25;4919846;29;20036;-95
2022/11/04 01:04:33;;;;;;;8.68;3.58;;;;;;;15.59;nan;99008.25;4919824;29;20391;-95
2022/11/04 01:07:00;;;;;;;10.60;3.72;;;;;;;15.70;nan;99050.22;4920116;29;20032;-96
2022/11/04 01:09:25;;;;;;;6.95;2.85;;;;;;;15.86;nan;99044.09;4904240;29;20028;-96
2022/11/04 01:11:51;;;;;;;7.72;4.05;;;;;;;16.18;nan;99047.56;4919842;29;20043;-96
2022/11/04 01:14:17;;;;;;;9.93;3.50;;;;;;;16.24;nan;99047.69;4902119;29;20020;-96
2022/11/04 01:16:43;;;;;;;9.13;3.58;;;;;;;16.49;nan;99071.41;4919678;29;20087;-95
2022/11/04 01:19:09;;;;;;;12.45;4.35;;;;;;;16.30;nan;99083.25;4903859;29;20028;-96
2022/11/04 01:21:35;;;;;;;12.15;4.80;;;;;;;16.50;nan;99096.06;4903640;29;20036;-94
2022/11/04 01:24:02;;;;;;;12.73;3.85;;;;;;;16.54;nan;99100.84;4903061;29;20043;-96
2022/11/04 01:26:28;;;;;;;8.15;3.63;;;;;;;16.21;nan;99114.25;4918985;29;20028;-96
2022/11/04 01:28:55;;;;;;;9.27;4.45;;;;;;;16.46;nan;99122.06;4918894;29;20027;-96
2022/11/04 01:31:26;;;;;;;9.23;4.80;;;;;;;16.01;nan;99107.69;4904183;29;20507;-95
2022/11/04 01:33:54;;;;;;;14.10;6.13;;;;;;;15.41;nan;99104.50;4902989;29;20483;-96
2022/11/04 01:36:21;;;;;;;11.40;5.85;;;;;;;16.01;nan;99119.13;4919129;29;20036;-95
2022/11/04 01:38:47;;;;;;;11.45;5.20;;;;;;;16.16;nan;99127.19;4902253;29;20032;-96
2022/11/04 01:41:27;;;;;;;10.93;6.50;;;;;;;16.33;nan;99148.28;4919936;29;20029;-95
2022/11/04 01:43:57;;;;;;;10.90;6.57;;;;;;;16.04;nan;99160.31;4909151;29;20175;-95
2022/11/04 01:46:32;;;;;;;12.05;5.53;;;;;;;16.08;nan;99143.09;4919325;29;20024;-95
2022/11/04 01:49:10;;;;;;;10.93;6.38;;;;;;;16.01;nan;99140.28;4903538;29;20035;-95
2022/11/04 01:51:39;;;;;;;11.10;6.35;;;;;;;15.91;nan;99175.91;4919407;29;20028;-96
2022/11/04 01:54:07;;;;;;;18.50;6.85;;;;;;;15.79;nan;99175.44;4919019;29;20024;-96
2022/11/04 01:56:33;;;;;;;10.95;6.45;;;;;;;15.44;nan;99174.75;4918871;29;20028;-95
2022/11/04 01:59:03;;;;;;;11.45;6.53;;;;;;;15.57;nan;99187.50;4914713;29;20111;-96
2022/11/04 02:01:30;;;;;;;11.77;7.23;;;;;;;15.65;nan;99184.84;4884437;29;20253;-95
2022/11/04 02:06:45;;;;;;;8.40;5.72;;;;;;;15.32;nan;99195.41;4901667;29;20067;-96
2022/11/04 02:09:12;;;;;;;13.27;6.63;;;;;;;15.08;nan;99215.56;4884911;29;20024;-95
2022/11/04 02:14:21;;;;;;;12.77;6.90;;;;;;;15.38;nan;99223.88;4914813;29;20130;-95
2022/11/04 02:16:49;;;;;;;10.45;6.63;;;;;;;14.83;nan;99230.53;4903105;29;20116;-96
2022/11/04 02:19:39;;;;;;;13.90;8.48;;;;;;;15.01;nan;99251.56;4918667;29;20032;-96
2022/11/04 02:22:20;;;;;;;17.00;8.68;;;;;;;15.28;nan;99249.63;4918018;29;20028;-95
2022/11/04 02:25:04;;;;;;;13.23;8.07;;;;;;;15.41;nan;99263.22;4918210;29;20087;-96
2022/11/04 02:27:47;;;;;;;13.93;8.35;;;;;;;15.23;nan;99267.81;4902476;29;20063;-95
2022/11/04 02:30:17;;;;;;;16.13;7.70;;;;;;;14.73;nan;99261.56;4900331;29;20107;-96
2022/11/04 02:32:57;;;;;;;14.20;7.40;;;;;;;14.79;nan;99281.22;4900074;29;20063;-95
2022/11/04 02:35:34;;;;;;;17.65;9.35;;;;;;;14.87;nan;99270.69;4900154;29;20424;-96
2022/11/04 02:38:18;;;;;;;14.27;9.38;;;;;;;14.51;nan;99280.56;4899846;29;20064;-96
2022/11/04 02:41:06;;;;;;;13.35;9.48;;;;;;;14.56;nan;99275.63;4899394;29;20065;-95
2022/11/04 02:43:44;;;;;;;23.55;10.43;;;;;;;14.47;nan;99293.25;4899482;29;20060;-94
2022/11/04 02:46:36;;;;;;;17.70;9.80;;;;;;;13.93;nan;99290.75;4883299;29;20033;-96
2022/11/04 02:49:09;;;;;;;17.33;10.23;;;;;;;14.09;nan;99311.16;4883951;29;20028;-94
2022/11/04 02:51:47;;;;;;;14.25;10.63;;;;;;;14.07;nan;99321.03;4883273;29;20517;-93
2022/11/04 02:54:39;;;;;;;16.90;10.90;;;;;;;14.20;nan;99318.84;4898590;29;20029;-94
2022/11/04 02:57:08;;;;;;;24.45;12.63;;;;;;;14.02;nan;99324.16;4900520;29;20020;-95
2022/11/04 02:59:38;;;;;;;22.58;12.73;;;;;;;13.65;nan;99329.59;4898453;29;20037;-94
2022/11/04 03:02:09;;;;;;;27.20;13.40;;;;;;;13.89;nan;99342.16;4898721;29;20472;-96
2022/11/04 03:04:39;;;;;;;25.25;13.55;;;;;;;13.76;nan;99336.44;4898270;29;20052;-94
2022/11/04 03:07:08;;;;;;;28.95;13.82;;;;;;;13.32;nan;99339.78;4898249;29;20051;-95
2022/11/04 03:09:36;;;;;;;26.88;15.57;;;;;;;14.04;nan;99342.44;4898414;29;20099;-94
2022/11/04 03:12:08;;;;;;;24.35;12.93;;;;;;;14.20;nan;99352.34;4887258;29;20094;-95
2022/11/04 03:14:42;;;;;;;27.60;13.05;;;;;;;14.23;nan;99344.91;4901881;29;20036;-95
2022/11/04 03:17:16;;;;;;;23.50;12.20;;;;;;;14.32;nan;99339.72;4901834;29;20028;-96
2022/11/04 03:20:12;;;;;;;20.80;13.30;;;;;;;14.58;nan;99348.50;4901600;29;20386;-95
2022/11/04 03:22:38;;;;;;;25.20;12.75;;;;;;;14.28;nan;99361.13;4900099;29;20036;-95
2022/11/04 03:25:06;;;;;;;23.60;12.88;;;;;;;14.29;nan;99360.13;4901775;29;20032;-94
2022/11/04 03:27:53;;;;;;;28.42;12.00;;;;;;;14.24;nan;99366.88;4890906;29;20028;-94
2022/11/04 03:30:21;;;;;;;26.05;13.13;;;;;;;14.41;nan;99368.63;4898502;29;20036;-95
2022/11/04 03:33:27;;;;;;;20.02;11.60;;;;;;;14.15;nan;99386.25;4901648;29;20032;-94
2022/11/04 03:35:52;;;;;;;23.58;11.95;;;;;;;13.98;nan;99406.41;4888432;29;20043;-94
2022/11/04 03:38:21;;;;;;;24.08;12.73;;;;;;;14.39;nan;99412.03;4916973;29;20115;-96
2022/11/04 03:40:46;;;;;;;22.48;12.93;;;;;;;14.68;nan;99417.91;4901368;29;20024;-95
2022/11/04 03:43:18;;;;;;;24.15;13.40;;;;;;;14.72;nan;99436.09;4914107;29;20043;-96
2022/11/04 03:45:44;;;;;;;26.35;14.48;;;;;;;14.53;nan;99442.34;4899113;29;20058;-94
2022/11/04 03:48:11;;;;;;;33.33;15.35;;;;;;;14.65;nan;99449.94;4901237;29;20491;-94
2022/11/04 03:50:46;;;;;;;24.48;13.40;;;;;;;14.46;nan;99434.22;4901085;29;20507;-95
2022/11/04 03:53:15;;;;;;;21.35;12.02;;;;;;;14.46;nan;99445.59;4901386;29;20036;-95
2022/11/04 03:56:05;;;;;;;23.00;12.05;;;;;;;14.25;nan;99469.69;4901361;29;20387;-94
2022/11/04 03:58:33;;;;;;;30.17;13.00;;;;;;;13.99;nan;99468.78;4917099;29;20028;-96
2022/11/04 04:01:22;;;;;;;28.00;14.23;;;;;;;13.97;nan;99460.16;4883291;29;20521;-95
2022/11/04 04:03:58;;;;;;;29.63;12.65;;;;;;;14.20;nan;99465.84;4898288;29;20535;-95
2022/11/04 04:06:30;;;;;;;23.98;12.43;;;;;;;14.25;nan;99468.84;4881445;29;20021;-95
2022/11/04 04:09:07;;;;;;;24.80;12.40;;;;;;;14.07;nan;99466.22;4881840;29;20020;-93
2022/11/04 04:11:42;;;;;;;29.02;12.38;;;;;;;14.66;nan;99490.38;4882399;29;20028;-94
2022/11/04 04:14:39;;;;;;;28.77;13.23;;;;;;;14.78;nan;99493.59;4916219;29;20036;-95
2022/11/04 04:17:57;;;;;;;23.45;12.70;;;;;;;14.19;nan;99494.03;4900526;29;20111;-95
2022/11/04 04:20:26;;;;;;;28.60;11.57;;;;;;;14.45;nan;99517.06;4860458;29;20040;-96
2022/11/04 04:23:00;;;;;;;31.38;13.35;;;;;;;14.43;nan;99543.63;4900447;29;20372;-96
2022/11/04 04:28:16;;;;;;;34.17;14.30;;;;;;;14.26;nan;99562.94;4917228;29;20393;-94
2022/11/04 04:30:43;;;;;;;32.42;13.40;;;;;;;13.56;nan;99562.56;4900920;29;20020;-95
2022/11/04 04:33:14;;;;;;;35.25;14.32;;;;;;;13.63;nan;99575.03;4900687;29;20055;-94
2022/11/04 04:35:45;;;;;;;31.60;13.32;;;;;;;14.02;nan;99560.81;4901124;29;20032;-95
2022/11/04 04:47:05;;;;;;;30.33;14.15;;;;;;;12.80;nan;99608.16;4898648;29;20047;-96
2022/11/04 04:49:33;;;;;;;29.48;14.43;;;;;;;13.23;nan;99620.06;4896970;29;20020;-95
2022/11/04 04:52:01;;;;;;;42.47;15.13;;;;;;;12.99;nan;99633.66;4888444;29;20051;-95
2022/11/04 04:54:27;;;;;;;28.50;13.82;;;;;;;13.35;nan;99661.16;4900499;29;20028;-95
2022/11/04 04:56:53;;;;;;;33.97;15.32;;;;;;;13.19;nan;99656.44;4900000;29;20479;-95
2022/11/04 04:59:18;;;;;;;32.45;13.93;;;;;;;13.96;nan;99664.34;4900218;29;20554;-94
2022/11/04 05:01:44;;;;;;;32.50;14.40;;;;;;;13.59;nan;99684.44;4900264;29;20092;-93
2022/11/04 05:04:10;;;;;;;24.35;13.02;;;;;;;13.15;nan;99691.94;4899802;29;20032;-95
2022/11/04 05:06:35;;;;;;;33.45;13.85;;;;;;;13.08;nan;99702.19;4898960;29;20368;-96
2022/11/04 05:09:01;;;;;;;29.23;14.85;;;;;;;12.98;nan;99693.44;4899670;29;20028;-95
2022/11/04 05:11:27;;;;;;;32.97;15.23;;;;;;;13.07;nan;99720.78;4899905;29;20033;-95
2022/11/04 05:13:52;;;;;;;36.90;15.82;;;;;;;13.08;nan;99739.09;4899994;29;20035;-96
2022/11/04 05:16:18;;;;;;;34.33;16.05;;;;;;;12.80;nan;99745.16;4899951;29;20537;-94
2022/11/04 05:18:43;;;;;;;36.50;18.50;;;;;;;12.78;nan;99747.09;4903441;29;20076;-95
2022/11/04 05:21:12;;;;;;;35.72;16.40;;;;;;;13.22;nan;99756.31;4899742;29;20292;-95
2022/11/04 05:23:38;;;;;;;33.60;14.27;;;;;;;13.21;nan;99783.66;4915766;29;20134;-93
2022/11/04 05:26:03;;;;;;;37.35;15.40;;;;;;;12.88;nan;99790.09;4915830;29;20060;-96
2022/11/04 05:28:29;;;;;;;39.95;16.83;;;;;;;12.92;nan;99790.66;4915844;29;20091;-96
2022/11/04 05:30:55;;;;;;;34.83;18.30;;;;;;;12.85;nan;99792.97;4915769;29;20031;-94
2022/11/04 05:33:20;;;;;;;26.65;15.50;;;;;;;12.74;nan;99799.19;4915832;29;20515;-96
2022/11/04 05:35:46;;;;;;;33.03;15.95;;;;;;;13.15;nan;99828.16;4916058;29;20367;-94
2022/11/04 05:38:12;;;;;;;30.77;15.15;;;;;;;13.04;nan;99829.13;4884128;29;20036;-95
2022/11/04 05:40:37;;;;;;;33.55;14.43;;;;;;;12.97;nan;99823.53;4884245;29;20590;-93
2022/11/04 05:43:03;;;;;;;33.17;14.05;;;;;;;12.97;nan;99817.44;4884187;29;20029;-96
2022/11/04 05:45:28;;;;;;;28.38;13.35;;;;;;;12.86;nan;99818.38;4884078;29;20550;-95
2022/11/04 05:48:02;;;;;;;29.08;12.98;;;;;;;13.13;nan;99832.72;4884431;29;20451;-95
2022/11/04 05:50:28;;;;;;;25.48;12.00;;;;;;;13.17;nan;99831.50;4886489;29;20043;-96
2022/11/04 05:52:57;;;;;;;23.23;11.77;;;;;;;12.62;nan;99845.88;4919012;29;20028;-96
2022/11/04 05:55:22;;;;;;;28.27;12.02;;;;;;;13.19;nan;99850.63;4903095;29;20020;-96
2022/11/04 05:57:48;;;;;;;32.47;12.32;;;;;;;13.05;nan;99834.25;4918485;29;20032;-96
2022/11/04 06:00:14;;;;;;;27.05;11.80;;;;;;;13.27;nan;99837.66;4903226;29;20016;-95
2022/11/04 06:02:39;;;;;;;25.67;11.30;;;;;;;13.35;nan;99843.09;4903222;29;20087;-95
2022/11/04 06:05:06;;;;;;;23.27;12.02;;;;;;;13.13;nan;99844.13;4902055;29;20040;-95
2022/11/04 06:07:31;;;;;;;27.70;11.23;;;;;;;13.25;nan;99831.63;4918064;29;20036;-96
2022/11/04 06:09:57;;;;;;;27.77;13.00;;;;;;;13.29;nan;99851.53;4903136;29;20112;-95
2022/11/04 06:12:22;;;;;;;31.35;12.73;;;;;;;13.11;nan;99856.59;4918337;29;20111;-95
2022/11/04 06:14:48;;;;;;;32.75;12.25;;;;;;;13.16;nan;99864.94;4902711;29;20169;-94
2022/11/04 06:17:19;;;;;;;23.98;11.75;;;;;;;13.03;nan;99878.34;4902419;29;20036;-96
2022/11/04 06:19:46;;;;;;;28.55;11.55;;;;;;;13.06;nan;99893.88;4902032;29;20028;-96
2022/11/04 06:22:16;;;;;;;25.65;11.65;;;;;;;12.52;nan;99881.84;4898132;29;20246;-95
2022/11/04 06:24:42;;;;;;;23.17;11.45;;;;;;;13.13;nan;99893.34;4914406;29;20041;-95
2022/11/04 06:27:09;;;;;;;25.20;11.13;;;;;;;12.65;nan;99887.72;4915062;29;20029;-94
2022/11/04 06:29:41;;;;;;;25.83;10.65;;;;;;;13.02;nan;99899.56;4914412;29;20021;-93
2022/11/04 06:32:13;;;;;;;25.40;11.98;;;;;;;12.89;nan;99894.50;4914320;29;20029;-94
2022/11/04 06:34:39;;;;;;;21.48;10.70;;;;;;;13.08;nan;99902.50;4914581;29;20495;-94
2022/11/04 06:37:05;;;;;;;26.80;10.63;;;;;;;12.88;nan;99919.19;4886783;29;20092;-95
2022/11/04 06:39:31;;;;;;;22.58;11.52;;;;;;;12.92;nan;99933.78;4883876;29;20036;-96
2022/11/04 06:41:56;;;;;;;20.05;9.25;;;;;;;12.69;nan;99943.63;4883505;29;20080;-95
2022/11/04 06:44:22;;;;;;;27.33;11.75;;;;;;;12.93;nan;99940.69;4883204;29;20547;-95
2022/11/04 06:46:48;;;;;;;18.25;9.13;;;;;;;13.17;nan;99943.06;4883545;29;20037;-94
2022/11/04 06:49:17;;;;;;;23.73;9.63;;;;;;;13.21;nan;99947.09;4898884;29;20025;-94
2022/11/04 06:51:43;;;;;;;22.08;9.75;;;;;;;12.83;nan;99967.00;4893021;29;20032;-95
2022/11/04 06:54:09;;;;;;;22.48;9.73;;;;;;;12.79;nan;99964.75;4916123;29;20031;-95
2022/11/04 06:56:35;;;;;;;19.48;9.80;;;;;;;12.78;nan;99979.75;4917566;29;20032;-95
2022/11/04 06:59:02;;;;;;;21.80;8.65;;;;;;;13.15;nan;99994.22;4901828;29;20119;-96
2022/11/04 07:01:29;;;;;;;23.13;8.40;;;;;;;13.01;nan;99992.75;4901418;29;20028;-94
2022/11/04 07:03:57;;;;;;;18.35;7.68;;;;;;;12.94;nan;99997.72;4917178;29;20028;-96
2022/11/04 07:06:23;;;;;;;17.85;8.10;;;;;;;12.99;nan;100019.22;4900402;29;20036;-95
2022/11/04 07:08:50;;;;;;;18.98;6.72;;;;;;;13.18;nan;100009.78;4916463;29;20119;-96
2022/11/04 07:11:18;;;;;;;25.27;8.25;;;;;;;12.99;nan;100023.69;4917304;29;20090;-95
2022/11/04 07:13:44;;;;;;;23.17;6.93;;;;;;;12.88;nan;100009.59;4917388;29;20031;-95
2022/11/04 07:16:09;;;;;;;17.77;5.90;;;;;;;12.88;nan;100024.59;4917053;29;20032;-95
2022/11/04 07:18:35;;;;;;;15.25;5.40;;;;;;;13.24;nan;100028.53;4917157;29;20385;-94
2022/11/04 07:21:07;;;;;;;16.88;5.72;;;;;;;13.41;nan;100042.16;4919806;29;20035;-96
2022/11/04 07:23:36;;;;;;;19.25;5.30;;;;;;;13.50;nan;100028.16;4919246;29;20036;-96
2022/11/04 07:26:06;;;;;;;18.05;5.43;;;;;;;13.86;nan;100028.53;4917807;29;20036;-95
2022/11/04 07:28:32;;;;;;;17.83;5.53;;;;;;;13.44;nan;100033.94;4919449;29;20083;-96
2022/11/04 07:32:06;;;;;;;8.70;5.22;;;;;;;14.01;nan;100048.31;4909404;29;20032;-95
2022/11/04 07:35:16;;;;;;;16.15;4.53;;;;;;;14.27;nan;100063.66;4907962;29;20109;-96
2022/11/04 07:50:17;;;;;;;14.90;4.18;;;;;;;13.88;nan;100067.03;5165565;23;20414;-96
2022/11/04 07:55:17;;;;;;;19.33;4.43;;;;;;;13.64;nan;100079.72;4944354;29;20051;-96
2022/11/04 07:57:47;;;;;;;10.27;3.47;;;;;;;14.11;nan;100089.75;4920190;29;20032;-94
2022/11/04 08:00:16;;;;;;;12.18;4.07;;;;;;;14.76;nan;100106.84;5015830;23;21172;-94
2022/11/04 08:02:46;;;;;;;13.60;4.00;;;;;;;14.91;nan;100112.56;4916168;29;20036;-96
2022/11/04 08:05:14;;;;;;;18.33;3.70;;;;;;;14.93;nan;100107.97;4917743;29;20066;-94
2022/11/04 08:07:40;;;;;;;18.48;4.13;;;;;;;14.83;nan;100128.25;4916820;29;20047;-94
2022/11/04 08:10:07;;;;;;;14.38;4.05;;;;;;;14.72;nan;100141.63;4916097;29;20091;-95
2022/11/04 08:12:33;;;;;;;19.05;4.05;;;;;;;14.70;nan;100141.75;4916840;29;20403;-94
2022/11/04 08:14:59;;;;;;;10.50;3.45;;;;;;;14.84;nan;100130.78;4919784;29;20035;-94
2022/11/04 08:17:25;;;;;;;10.02;3.45;;;;;;;15.12;nan;100169.75;4917642;29;20044;-95
2022/11/04 08:19:51;;;;;;;15.30;4.05;;;;;;;14.96;nan;100149.97;4912606;29;20033;-94
2022/11/04 08:22:16;;;;;;;15.25;5.50;;;;;;;14.65;nan;100152.75;4902620;29;20033;-96
2022/11/04 08:24:42;;;;;;;16.63;5.30;;;;;;;14.67;nan;100147.31;4917632;29;20483;-93
2022/11/04 08:27:08;;;;;;;14.35;4.97;;;;;;;14.81;nan;100151.34;4917421;29;20478;-94
2022/11/04 08:29:35;;;;;;;15.82;4.88;;;;;;;14.73;nan;100161.78;4917143;29;20115;-94
2022/11/04 08:32:03;;;;;;;12.57;4.25;;;;;;;14.96;nan;100146.50;4902428;29;20098;-96
2022/11/04 08:34:29;;;;;;;12.65;3.28;;;;;;;14.91;nan;100168.06;4917182;29;20024;-95
2022/11/04 08:36:59;;;;;;;12.95;3.13;;;;;;;14.89;nan;100170.03;4915445;29;20034;-96
2022/11/04 08:39:25;;;;;;;10.40;3.85;;;;;;;15.04;nan;100163.31;4916902;29;20032;-94
2022/11/04 08:41:52;;;;;;;9.63;3.67;;;;;;;15.11;nan;100162.81;4917929;29;20026;-94
2022/11/04 08:44:18;;;;;;;9.60;4.18;;;;;;;15.39;nan;100182.25;4928200;29;20024;-94
2022/11/04 08:46:45;;;;;;;13.35;3.78;;;;;;;15.53;nan;100173.06;4898829;29;20029;-94
2022/11/04 08:49:10;;;;;;;10.05;4.13;;;;;;;15.40;nan;100186.56;4915394;29;20040;-95
2022/11/04 08:51:40;;;;;;;10.23;3.45;;;;;;;15.63;nan;100173.88;4915480;29;20028;-94
2022/11/04 08:54:06;;;;;;;13.80;4.10;;;;;;;15.20;nan;100176.00;4919172;29;20024;-93
2022/11/04 08:56:34;;;;;;;12.50;3.65;;;;;;;15.76;nan;100190.31;4920058;29;20024;-96
2022/11/04 08:59:01;;;;;;;11.10;3.72;;;;;;;15.58;nan;100166.38;4921659;29;20028;-95
2022/11/04 09:01:28;;;;;;;9.05;3.28;;;;;;;16.12;nan;100201.06;4921485;29;20395;-94
2022/11/04 09:03:53;;;;;;;11.70;3.75;;;;;;;17.56;nan;100193.31;4923292;29;20040;-95
2022/11/04 09:06:26;;;;;;;12.02;3.92;;;;;;;17.79;nan;100183.84;4922489;29;20475;-95
2022/11/04 09:08:55;;;;;;;10.77;3.03;;;;;;;17.92;nan;100193.25;4919767;29;20080;-95
2022/11/04 09:11:22;;;;;;;19.65;3.95;;;;;;;17.91;nan;100207.50;4919687;29;20028;-95
2022/11/04 09:13:47;;;;;;;10.50;3.42;;;;;;;17.53;nan;100214.84;4919462;29;20028;-95
2022/11/04 09:16:14;;;;;;;6.45;3.20;;;;;;;18.27;nan;100232.13;4918934;29;20036;-94
2022/11/04 09:18:40;;;;;;;10.10;3.50;;;;;;;19.52;nan;100211.81;4919266;29;20032;-95
2022/11/04 09:21:07;;;;;;;16.35;3.40;;;;;;;18.38;nan;100207.94;4919235;29;20525;-93
2022/11/04 09:23:33;;;;;;;8.85;3.60;;;;;;;17.28;nan;100224.41;4921396;29;20035;-95
2022/11/04 09:26:09;;;;;;;10.75;3.20;;;;;;;18.80;nan;100232.88;4920894;29;20032;-95
2022/11/04 09:28:35;;;;;;;12.30;3.80;;;;;;;21.77;nan;100237.97;4918924;29;20028;-95
2022/11/04 09:31:10;;;;;;;11.40;3.78;;;;;;;20.15;nan;100234.22;4918153;29;20036;-95
2022/11/04 09:33:35;;;;;;;11.43;2.58;;;;;;;19.47;nan;100255.91;4918640;29;20055;-94
2022/11/04 09:36:01;;;;;;;8.93;2.80;;;;;;;18.14;nan;100232.53;4934357;29;20483;-93
2022/11/04 09:38:26;;;;;;;7.80;2.25;;;;;;;18.29;nan;100238.13;4918610;29;20032;-93
2022/11/04 09:40:52;;;;;;;5.68;2.10;;;;;;;19.12;nan;100225.94;4918693;29;20036;-94
2022/11/04 09:43:31;;;;;;;6.28;1.90;;;;;;;20.52;nan;100231.94;4919244;29;20036;-94
2022/11/04 09:45:59;;;;;;;12.10;3.17;;;;;;;21.41;nan;100221.75;4918628;29;20039;-96
2022/11/04 09:48:31;;;;;;;6.97;1.85;;;;;;;22.53;nan;100229.84;4917123;29;20035;-95
2022/11/04 09:51:02;;;;;;;5.32;1.95;;;;;;;23.62;nan;100244.16;4918141;29;20032;-95
2022/11/04 09:53:39;;;;;;;4.63;1.38;;;;;;;25.55;nan;100238.88;4918585;29;20028;-95
2022/11/04 09:56:26;;;;;;;8.30;1.67;;;;;;;28.58;nan;100275.38;4916358;29;20036;-94
2022/11/04 09:58:52;;;;;;;9.50;1.83;;;;;;;29.07;nan;100232.94;4917491;29;20132;-95
2022/11/04 10:01:18;;;;;;;11.23;2.42;;;;;;;29.35;nan;100244.22;4917552;29;20115;-95
2022/11/04 10:13:10;;;;;;;;;;;;;;;;;;;;;
2022/11/04 11:12:49;;;;;;;5.47;1.40;;;;;;;39.45;nan;100341.28;823521;23;20451;-96
2022/11/04 11:15:37;;;;;;;4.95;1.23;;;;;;;39.21;nan;100339.44;4901705;29;20583;-93
2022/11/04 11:18:41;;;;;;;4.68;0.80;;;;;;;38.70;nan;100350.28;4887333;29;20045;-94
2022/11/04 11:21:24;;;;;;;8.23;0.90;;;;;;;39.07;nan;100339.38;4870845;29;20022;-95
2022/11/04 11:23:53;;;;;;;4.85;0.80;;;;;;;37.77;nan;100336.69;4870880;29;20045;-95
2022/11/04 11:26:31;;;;;;;7.70;1.35;;;;;;;38.89;nan;100345.63;4867415;29;20022;-94
2022/11/04 11:29:01;;;;;;;9.18;1.63;;;;;;;38.37;nan;100339.13;4879675;29;20025;-95
2022/11/04 11:31:42;;;;;;;6.95;1.20;;;;;;;38.15;nan;100354.16;4878226;29;20052;-96
2022/11/04 11:34:47;;;;;;;4.00;0.93;;;;;;;37.31;nan;100346.88;4863759;29;20052;-96
2022/11/04 11:37:40;;;;;;;8.32;0.82;;;;;;;36.26;nan;100356.88;4815710;29;20034;-96
2022/11/04 11:40:30;;;;;;;2.50;0.82;;;;;;;36.77;nan;100341.41;4826854;29;20030;-96
2022/11/04 11:43:03;;;;;;;4.25;1.10;;;;;;;35.25;nan;100361.19;4873904;29;20040;-96
2022/11/04 11:45:30;;;;;;;4.70;0.90;;;;;;;34.81;nan;100361.59;4885641;29;20040;-96
2022/11/04 11:47:56;;;;;;;2.83;0.90;;;;;;;36.57;nan;100358.72;4867795;29;20067;-96
2022/11/04 11:50:30;;;;;;;3.33;0.70;;;;;;;35.15;nan;100361.97;4869494;29;20093;-96
2022/11/04 11:53:17;;;;;;;4.72;0.65;;;;;;;32.14;nan;100369.78;4868208;29;20029;-96
2022/11/04 11:55:52;;;;;;;7.45;1.23;;;;;;;31.59;nan;100366.66;4862217;29;20388;-96
2022/11/04 11:58:39;;;;;;;4.85;0.90;;;;;;;29.51;nan;100373.38;4877730;29;20033;-96
2022/11/04 12:01:07;;;;;;;4.85;1.52;;;;;;;29.13;nan;100373.69;4877369;29;20044;-96
2022/11/04 12:03:44;;;;;;;4.15;1.27;;;;;;;28.86;nan;100360.47;4867165;29;20461;-96
2022/11/04 12:06:47;;;;;;;4.30;1.30;;;;;;;28.99;nan;100386.50;4883308;29;20113;-96
2022/11/04 12:09:34;;;;;;;3.60;0.95;;;;;;;28.77;nan;100386.97;4877104;29;20483;-96
2022/11/04 12:12:18;;;;;;;4.05;0.95;;;;;;;28.60;nan;100377.81;4876483;29;20561;-96
2022/11/04 12:15:04;;;;;;;7.05;0.95;;;;;;;27.43;nan;100364.75;4876183;29;20029;-96
2022/11/04 12:17:36;;;;;;;9.75;0.70;;;;;;;25.02;nan;100365.84;4876150;29;20078;-96
2022/11/04 12:20:24;;;;;;;5.38;1.55;;;;;;;25.49;nan;100339.97;4889614;29;20053;-96
2022/11/04 12:23:26;;;;;;;5.00;1.02;;;;;;;27.14;nan;100350.78;4875997;29;20588;-96
2022/11/04 12:26:17;;;;;;;7.80;1.30;;;;;;;26.87;nan;100352.78;4878917;29;20034;-96
2022/11/04 12:28:58;;;;;;;5.43;1.30;;;;;;;27.81;nan;100345.84;4903045;29;20081;-95
2022/11/04 12:32:01;;;;;;;11.82;1.02;;;;;;;27.23;nan;100371.09;4861375;29;20040;-96
2022/11/04 12:34:52;;;;;;;5.72;1.60;;;;;;;26.41;nan;100367.97;4860782;29;20056;-95
2022/11/04 12:37:27;;;;;;;6.15;1.40;;;;;;;27.12;nan;100366.34;4861513;29;20075;-96
2022/11/04 12:40:05;;;;;;;5.63;1.10;;;;;;;26.75;nan;100370.63;4860787;29;20029;-96
2022/11/04 12:42:57;;;;;;;4.70;1.10;;;;;;;24.85;nan;100363.50;4872381;29;20033;-96
2022/11/04 12:45:29;;;;;;;;;;;;;;;24.29;nan;100375.09;4879631;29;20057;-96
2022/11/04 12:48:03;;;;;;;5.40;1.25;;;;;;;23.48;nan;100374.50;4879562;29;19916;-96
2022/11/04 12:50:51;;;;;;;5.20;1.33;;;;;;;22.84;nan;100381.34;4879756;29;20052;-96
2022/11/04 12:53:32;;;;;;;7.28;1.45;;;;;;;22.60;nan;100382.44;4880080;29;20035;-96
2022/11/04 12:56:09;;;;;;;3.28;1.13;;;;;;;21.85;nan;100377.91;4879341;29;20560;-96
2022/11/04 12:59:09;;;;;;;6.07;1.30;;;;;;;22.24;nan;100379.59;4878308;29;20037;-96
2022/11/04 13:01:46;;;;;;;9.10;2.63;;;;;;;22.18;nan;100371.28;4879775;29;20116;-96
2022/11/04 13:04:32;;;;;;;4.82;1.40;;;;;;;21.67;nan;100378.22;4894522;29;20040;-95
2022/11/04 13:07:02;;;;;;;8.70;1.70;;;;;;;21.11;nan;100383.63;4876419;29;20061;-96
2022/11/04 13:09:44;;;;;;;10.07;1.88;;;;;;;21.79;nan;100408.84;4881709;29;20022;-96
2022/11/04 13:12:20;;;;;;;3.45;0.95;;;;;;;21.78;nan;100402.69;4871283;29;20033;-95
2022/11/04 13:15:01;;;;;;;8.40;1.42;;;;;;;22.14;nan;100423.47;4875856;29;20029;-95
2022/11/04 13:17:36;;;;;;;5.88;1.80;;;;;;;20.69;nan;100416.81;4888051;29;20057;-96
2022/11/04 13:20:29;;;;;;;3.30;1.00;;;;;;;21.43;nan;100403.22;4871702;29;20039;-96
2022/11/04 13:22:59;;;;;;;8.60;1.80;;;;;;;21.36;nan;100398.53;4889236;29;20040;-95
2022/11/04 13:25:25;;;;;;;4.38;1.00;;;;;;;21.91;nan;100406.59;4879141;29;20049;-95
2022/11/04 13:27:50;;;;;;;5.93;0.90;;;;;;;21.66;nan;100398.72;4877720;29;20033;-96
2022/11/04 13:30:33;;;;;;;3.15;0.68;;;;;;;22.26;nan;100390.97;4875256;29;20025;-96
2022/11/04 13:33:07;;;;;;;10.02;1.85;;;;;;;22.06;nan;100414.66;4876237;29;20037;-96
2022/11/04 13:35:39;;;;;;;7.10;1.17;;;;;;;22.37;nan;100414.59;4873362;29;20033;-96
2022/11/04 13:38:11;;;;;;;4.30;1.30;;;;;;;22.75;nan;100411.91;4877527;29;20041;-95
2022/11/04 13:40:51;;;;;;;5.47;1.70;;;;;;;22.64;nan;100429.22;4873906;29;20488;-96
2022/11/04 13:43:38;;;;;;;8.02;1.23;;;;;;;23.22;nan;100405.34;4875248;29;20510;-96
2022/11/04 13:46:29;;;;;;;13.60;1.52;;;;;;;23.75;nan;100422.03;4868956;29;20029;-96
2022/11/04 13:49:14;;;;;;;5.97;1.10;;;;;;;23.16;nan;100398.91;4878274;29;20037;-96
2022/11/04 13:51:46;;;;;;;5.95;1.75;;;;;;;22.97;nan;100397.59;4872255;29;20488;-96
2022/11/04 13:54:32;;;;;;;5.00;1.75;;;;;;;23.15;nan;100418.66;4874434;29;20044;-95
2022/11/04 13:57:15;;;;;;;4.45;1.45;;;;;;;23.25;nan;100428.25;4874768;29;20093;-95
2022/11/04 13:59:43;;;;;;;8.40;1.75;;;;;;;23.38;nan;100432.94;4878846;29;20033;-94